LOWILIRQ

Guest
Details From LOWI - Innsbruck Kranebitten
To LIRQ - Firenze
Flight Number -
Tags Generated
Created
Modified
Stats Distance 207 nm / 384 km
Max Altitude 0 ft / 0 m
Waypoints 2
Social Downloads 3
Likes 0
Share VATSIM

Download

Looking for another format? Having issues loading an existing format? Contact us
Advertisement - Login to hide

Notes

Generated

Route

LOWI LIRQ

ID Type Via Altitude (ft/m) Position (lat/lon) Dist (leg/tot) Name
O LOWI APT - 0 / 0 47.25883 / 11.33091 - / 0 nm
O LIRQ APT - 0 / 0 43.80507 / 11.19741 207 / 207 nm

Altitude Profile

Advertisement - Login to hide

Weather


0- 5 10 15 20 25 30 35+ Temperature / °C

Clouds and Precipitation
Forecast for 2019-05-22 00:00 UTC. Updated 3 hours ago

Ground ~20,000 ft ~40,000 ft Winds

LOWI

Details ICAO LOWI (INN)
Name Innsbruck
Region Austria
Timezone Europe/Vienna (UTC+2.0)
Stats Elevation 1,905 ft / 581 m (AMSL)
Location 47.260200° 11.344000°
Runways 1
Magnetic Variation 3.191° E

METAR

LOWI 212350Z AUTO VRB01KT 9999 -SHRA FEW006 BKN070 10/10 Q1016

Decode

TAF

TAF LOWI 212315Z 2200/2224 VRB02KT 9999 -RA FEW010 SCT030 BKN070 TX15/2212Z TN10/2201Z BECMG 2206/2208 09006KT NSW SCT040 SCT060 TEMPO 2213/2218 27007KT -SHRA SCT030 BKN060

Decode

Departure Runways

ID Width Length Bearing (true/mag) Surface Threshold Overrun Markings Lighting
08 148 ft / 45 m 6,545 ft / 1,995 m 80.93° / 77.74° ASPHALT 338 ft / 103 m 0 ft / 0 m PREC-APP CENTERLINE EDGE THRESHOLD REIL-OMNI
26 148 ft / 45 m 6,545 ft / 1,995 m 260.95° / 257.76° ASPHALT 0 ft / 0 m 0 ft / 0 m PREC-APP CENTERLINE EDGE THRESHOLD MALS REIL-OMNI

LIRQ

Details ICAO LIRQ (FLR)
Name Firenze
Region Italy
Timezone Europe/Rome (UTC+2.0)
Stats Elevation 142 ft / 43 m (AMSL)
Location 43.810000° 11.205100°
Runways 1
Magnetic Variation 3.033° E

METAR

LIRQ 212350Z 11006KT 9999 FEW060 14/12 Q1015

Decode

TAF

TAF LIRQ 212300Z 2200/2224 VRB04KT 9999 SCT030 TEMPO 2210/2217 4000 TSRA

Decode

Destination Runways

ID Width Length Bearing (true/mag) Surface Threshold Overrun Markings Lighting
05 98 ft / 30 m 5,133 ft / 1,565 m 48.11° / 45.08° ASPHALT 344 ft / 105 m 0 ft / 0 m PREC-APP EDGE THRESHOLD SSALF REIL-OMNI
23 98 ft / 30 m 5,133 ft / 1,565 m 228.12° / 225.09° ASPHALT 1,909 ft / 582 m 0 ft / 0 m PREC-APP EDGE THRESHOLD REIL-OMNI

Approach Navaids

Runway Type Ident Frequency Range Bearing (true/mag) Slope Elevation
05 DME IFZ 110.30 MHz 18 nm / 33 km - - 144 ft / 44 m (AMSL)
05 LOC-ILS IFZ 110.30 MHz 18 nm / 33 km 48.10° / 45.07 ° - 131 ft / 40 m (AMSL)
05 GS IFZ 110.30 MHz 10 nm / 19 km 47.00° / 43.97 ° 3.00° 144 ft / 44 m (AMSL)

Popular Alternatives